sensor_id;sensor_type;location;lat;lon;timestamp;pressure;altitude;pressure_sealevel;temperature;humidity
11605;BME280;5858;43.076;25.626;2023-03-01T00:01:20;100075.94;;;6.86;100.00
11605;BME280;5858;43.076;25.626;2023-03-01T00:03:47;100078.00;;;7.02;100.00
11605;BME280;5858;43.076;25.626;2023-03-01T00:06:14;100053.69;;;6.77;100.00
11605;BME280;5858;43.076;25.626;2023-03-01T00:08:43;100165.00;;;7.30;100.00
11605;BME280;5858;43.076;25.626;2023-03-01T00:11:13;99983.31;;;6.23;100.00
11605;BME280;5858;43.076;25.626;2023-03-01T00:13:41;100048.22;;;6.69;100.00
11605;BME280;5858;43.076;25.626;2023-03-01T00:16:13;100165.13;;;7.29;100.00
11605;BME280;5858;43.076;25.626;2023-03-01T00:18:44;100121.44;;;7.12;100.00
11605;BME280;5858;43.076;25.626;2023-03-01T00:21:11;100097.19;;;7.05;100.00
11605;BME280;5858;43.076;25.626;2023-03-01T00:23:38;100133.91;;;7.21;100.00
11605;BME280;5858;43.076;25.626;2023-03-01T00:26:09;100138.94;;;7.14;100.00
11605;BME280;5858;43.076;25.626;2023-03-01T00:28:36;100036.72;;;6.40;100.00
11605;BME280;5858;43.076;25.626;2023-03-01T00:31:10;100168.66;;;7.19;100.00
11605;BME280;5858;43.076;25.626;2023-03-01T00:33:41;100015.47;;;6.40;100.00
11605;BME280;5858;43.076;25.626;2023-03-01T00:36:14;100107.31;;;7.11;100.00
11605;BME280;5858;43.076;25.626;2023-03-01T00:38:48;100134.75;;;7.21;100.00
11605;BME280;5858;43.076;25.626;2023-03-01T00:41:17;99927.38;;;5.65;100.00
11605;BME280;5858;43.076;25.626;2023-03-01T00:43:45;100110.22;;;6.89;100.00
11605;BME280;5858;43.076;25.626;2023-03-01T00:46:15;100082.09;;;6.77;100.00
11605;BME280;5858;43.076;25.626;2023-03-01T00:48:42;100110.38;;;6.68;100.00
11605;BME280;5858;43.076;25.626;2023-03-01T00:51:11;100102.22;;;6.60;100.00
11605;BME280;5858;43.076;25.626;2023-03-01T00:53:39;100028.44;;;6.14;100.00
11605;BME280;5858;43.076;25.626;2023-03-01T00:56:08;100047.22;;;6.22;100.00
11605;BME280;5858;43.076;25.626;2023-03-01T00:58:37;100095.22;;;6.40;100.00
11605;BME280;5858;43.076;25.626;2023-03-01T01:01:07;100080.25;;;6.48;100.00
11605;BME280;5858;43.076;25.626;2023-03-01T01:03:43;100067.25;;;6.45;100.00
11605;BME280;5858;43.076;25.626;2023-03-01T01:06:14;100040.09;;;6.42;100.00
11605;BME280;5858;43.076;25.626;2023-03-01T01:08:41;100072.28;;;6.48;100.00
11605;BME280;5858;43.076;25.626;2023-03-01T01:11:09;99969.34;;;5.72;100.00
11605;BME280;5858;43.076;25.626;2023-03-01T01:13:37;99994.25;;;5.80;100.00
11605;BME280;5858;43.076;25.626;2023-03-01T01:16:05;100020.22;;;5.77;100.00
11605;BME280;5858;43.076;25.626;2023-03-01T01:18:33;99914.25;;;5.14;100.00
11605;BME280;5858;43.076;25.626;2023-03-01T01:21:04;100061.75;;;6.18;100.00
11605;BME280;5858;43.076;25.626;2023-03-01T01:23:31;99970.13;;;5.62;100.00
11605;BME280;5858;43.076;25.626;2023-03-01T01:26:03;99865.34;;;4.97;100.00
11605;BME280;5858;43.076;25.626;2023-03-01T01:28:30;99869.66;;;4.98;100.00
11605;BME280;5858;43.076;25.626;2023-03-01T01:30:59;100029.91;;;5.87;100.00
11605;BME280;5858;43.076;25.626;2023-03-01T01:33:27;99881.94;;;4.99;100.00
11605;BME280;5858;43.076;25.626;2023-03-01T01:35:54;100011.06;;;5.60;100.00
11605;BME280;5858;43.076;25.626;2023-03-01T01:38:21;99880.50;;;4.86;100.00
11605;BME280;5858;43.076;25.626;2023-03-01T01:40:49;99892.81;;;4.96;100.00
11605;BME280;5858;43.076;25.626;2023-03-01T01:43:22;100054.69;;;5.97;100.00
11605;BME280;5858;43.076;25.626;2023-03-01T01:45:50;100063.44;;;5.88;100.00
11605;BME280;5858;43.076;25.626;2023-03-01T01:48:22;99886.25;;;4.91;100.00
11605;BME280;5858;43.076;25.626;2023-03-01T01:50:55;99987.00;;;5.52;100.00
11605;BME280;5858;43.076;25.626;2023-03-01T01:53:25;99909.00;;;4.93;100.00
11605;BME280;5858;43.076;25.626;2023-03-01T01:55:56;100086.78;;;6.15;100.00
11605;BME280;5858;43.076;25.626;2023-03-01T01:58:27;100032.50;;;5.68;100.00
11605;BME280;5858;43.076;25.626;2023-03-01T02:00:56;99968.97;;;5.15;100.00
11605;BME280;5858;43.076;25.626;2023-03-01T02:03:29;100031.97;;;5.74;100.00
11605;BME280;5858;43.076;25.626;2023-03-01T02:06:02;100038.41;;;5.81;100.00
11605;BME280;5858;43.076;25.626;2023-03-01T02:08:32;100001.25;;;5.51;100.00
11605;BME280;5858;43.076;25.626;2023-03-01T02:11:01;100051.56;;;5.83;100.00
11605;BME280;5858;43.076;25.626;2023-03-01T02:13:30;99994.69;;;5.55;100.00
11605;BME280;5858;43.076;25.626;2023-03-01T02:18:31;99997.75;;;5.50;100.00
11605;BME280;5858;43.076;25.626;2023-03-01T02:21:19;100061.56;;;6.00;100.00
11605;BME280;5858;43.076;25.626;2023-03-01T02:23:50;100022.88;;;5.77;100.00
11605;BME280;5858;43.076;25.626;2023-03-01T02:26:22;99998.63;;;5.60;100.00
11605;BME280;5858;43.076;25.626;2023-03-01T02:28:53;100099.38;;;6.23;100.00
11605;BME280;5858;43.076;25.626;2023-03-01T02:31:21;99974.41;;;5.44;100.00
11605;BME280;5858;43.076;25.626;2023-03-01T02:34:06;100004.25;;;5.67;100.00
11605;BME280;5858;43.076;25.626;2023-03-01T02:36:37;99892.53;;;4.90;100.00
11605;BME280;5858;43.076;25.626;2023-03-01T02:39:07;100046.59;;;5.99;100.00
11605;BME280;5858;43.076;25.626;2023-03-01T02:41:43;100017.66;;;5.96;100.00
11605;BME280;5858;43.076;25.626;2023-03-01T02:44:12;100039.69;;;5.87;100.00
11605;BME280;5858;43.076;25.626;2023-03-01T02:46:47;99868.97;;;4.96;100.00
11605;BME280;5858;43.076;25.626;2023-03-01T02:49:20;99890.22;;;5.06;100.00
11605;BME280;5858;43.076;25.626;2023-03-01T02:51:56;99974.56;;;5.52;100.00
11605;BME280;5858;43.076;25.626;2023-03-01T02:54:31;100038.47;;;6.00;100.00
11605;BME280;5858;43.076;25.626;2023-03-01T02:57:01;99950.00;;;5.50;100.00
11605;BME280;5858;43.076;25.626;2023-03-01T02:59:31;99945.66;;;5.49;100.00
11605;BME280;5858;43.076;25.626;2023-03-01T03:02:04;99906.34;;;5.24;100.00
11605;BME280;5858;43.076;25.626;2023-03-01T03:04:31;99978.84;;;5.74;100.00
11605;BME280;5858;43.076;25.626;2023-03-01T03:06:58;100038.34;;;6.12;100.00
11605;BME280;5858;43.076;25.626;2023-03-01T03:09:26;100041.34;;;6.18;100.00
11605;BME280;5858;43.076;25.626;2023-03-01T03:11:53;99937.28;;;5.54;100.00
11605;BME280;5858;43.076;25.626;2023-03-01T03:14:20;99917.69;;;5.35;100.00
11605;BME280;5858;43.076;25.626;2023-03-01T03:16:50;99884.16;;;5.34;100.00
11605;BME280;5858;43.076;25.626;2023-03-01T03:19:19;99956.91;;;5.72;100.00
11605;BME280;5858;43.076;25.626;2023-03-01T03:21:46;100055.03;;;6.23;100.00
11605;BME280;5858;43.076;25.626;2023-03-01T03:24:15;99963.25;;;5.90;100.00
11605;BME280;5858;43.076;25.626;2023-03-01T03:26:43;99978.06;;;5.93;100.00
11605;BME280;5858;43.076;25.626;2023-03-01T03:29:10;100055.47;;;6.28;100.00
11605;BME280;5858;43.076;25.626;2023-03-01T03:31:37;99909.88;;;5.34;100.00
11605;BME280;5858;43.076;25.626;2023-03-01T03:34:05;99902.91;;;5.43;100.00
11605;BME280;5858;43.076;25.626;2023-03-01T03:36:32;99989.00;;;5.99;100.00
11605;BME280;5858;43.076;25.626;2023-03-01T03:38:59;99967.44;;;5.93;100.00
11605;BME280;5858;43.076;25.626;2023-03-01T03:41:26;99915.94;;;5.65;100.00
11605;BME280;5858;43.076;25.626;2023-03-01T03:43:53;99950.38;;;5.86;100.00
11605;BME280;5858;43.076;25.626;2023-03-01T03:46:20;99953.56;;;5.80;100.00
11605;BME280;5858;43.076;25.626;2023-03-01T03:48:48;99925.75;;;5.74;100.00
11605;BME280;5858;43.076;25.626;2023-03-01T03:51:17;100043.44;;;6.53;100.00
11605;BME280;5858;43.076;25.626;2023-03-01T03:53:45;100060.28;;;6.63;100.00
11605;BME280;5858;43.076;25.626;2023-03-01T03:56:12;99979.34;;;5.98;100.00
11605;BME280;5858;43.076;25.626;2023-03-01T03:58:40;100057.44;;;6.55;100.00
11605;BME280;5858;43.076;25.626;2023-03-01T04:01:07;99983.53;;;6.11;100.00
11605;BME280;5858;43.076;25.626;2023-03-01T04:03:34;100026.25;;;6.28;100.00
11605;BME280;5858;43.076;25.626;2023-03-01T04:06:02;100009.44;;;6.18;100.00
11605;BME280;5858;43.076;25.626;2023-03-01T04:08:32;99994.03;;;6.03;100.00
11605;BME280;5858;43.076;25.626;2023-03-01T04:11:00;99862.38;;;5.41;100.00
11605;BME280;5858;43.076;25.626;2023-03-01T04:13:49;99987.50;;;6.16;100.00
11605;BME280;5858;43.076;25.626;2023-03-01T04:16:16;99954.56;;;5.88;100.00
11605;BME280;5858;43.076;25.626;2023-03-01T04:18:44;100074.22;;;6.37;100.00
11605;BME280;5858;43.076;25.626;2023-03-01T04:21:12;100005.25;;;6.25;100.00
11605;BME280;5858;43.076;25.626;2023-03-01T04:23:42;99917.03;;;5.62;100.00
11605;BME280;5858;43.076;25.626;2023-03-01T04:26:11;100049.59;;;6.54;100.00
11605;BME280;5858;43.076;25.626;2023-03-01T04:28:39;99974.88;;;5.99;100.00
11605;BME280;5858;43.076;25.626;2023-03-01T04:31:10;99907.09;;;5.45;100.00
11605;BME280;5858;43.076;25.626;2023-03-01T04:33:45;100062.47;;;6.58;100.00
11605;BME280;5858;43.076;25.626;2023-03-01T04:36:14;100045.25;;;6.34;100.00
11605;BME280;5858;43.076;25.626;2023-03-01T04:38:44;99886.56;;;5.57;100.00
11605;BME280;5858;43.076;25.626;2023-03-01T04:41:13;99891.44;;;5.42;100.00
11605;BME280;5858;43.076;25.626;2023-03-01T04:43:41;99925.72;;;5.64;100.00
11605;BME280;5858;43.076;25.626;2023-03-01T04:46:12;99946.00;;;5.75;100.00
11605;BME280;5858;43.076;25.626;2023-03-01T04:48:41;99897.56;;;5.23;100.00
11605;BME280;5858;43.076;25.626;2023-03-01T04:51:08;99917.84;;;5.44;100.00
11605;BME280;5858;43.076;25.626;2023-03-01T04:53:39;99936.16;;;5.56;100.00
11605;BME280;5858;43.076;25.626;2023-03-01T04:56:08;100074.78;;;6.50;100.00
11605;BME280;5858;43.076;25.626;2023-03-01T04:58:39;99966.88;;;5.89;100.00
11605;BME280;5858;43.076;25.626;2023-03-01T05:01:10;99999.75;;;6.08;100.00
11605;BME280;5858;43.076;25.626;2023-03-01T05:03:41;99889.09;;;5.49;100.00
11605;BME280;5858;43.076;25.626;2023-03-01T05:06:09;100059.97;;;6.38;100.00
11605;BME280;5858;43.076;25.626;2023-03-01T05:08:36;100017.84;;;6.33;100.00
11605;BME280;5858;43.076;25.626;2023-03-01T05:11:04;100060.66;;;6.40;100.00
11605;BME280;5858;43.076;25.626;2023-03-01T05:13:36;99920.94;;;5.58;100.00
11605;BME280;5858;43.076;25.626;2023-03-01T05:16:05;99924.97;;;5.43;100.00
11605;BME280;5858;43.076;25.626;2023-03-01T05:18:33;100017.72;;;6.25;100.00
11605;BME280;5858;43.076;25.626;2023-03-01T05:21:06;100058.28;;;6.46;100.00
11605;BME280;5858;43.076;25.626;2023-03-01T05:23:34;100033.50;;;6.36;100.00
11605;BME280;5858;43.076;25.626;2023-03-01T05:26:08;100031.97;;;6.24;100.00
11605;BME280;5858;43.076;25.626;2023-03-01T05:28:37;100012.19;;;5.97;100.00
11605;BME280;5858;43.076;25.626;2023-03-01T05:31:07;99896.34;;;5.47;100.00
11605;BME280;5858;43.076;25.626;2023-03-01T05:33:35;99917.16;;;5.42;100.00
11605;BME280;5858;43.076;25.626;2023-03-01T05:36:04;100081.50;;;6.44;100.00
11605;BME280;5858;43.076;25.626;2023-03-01T05:38:31;100009.00;;;6.13;100.00
11605;BME280;5858;43.076;25.626;2023-03-01T05:40:58;99976.91;;;5.76;100.00
11605;BME280;5858;43.076;25.626;2023-03-01T05:43:25;99949.47;;;5.66;100.00
11605;BME280;5858;43.076;25.626;2023-03-01T05:45:54;99958.69;;;5.62;100.00
11605;BME280;5858;43.076;25.626;2023-03-01T05:48:24;100031.75;;;5.96;100.00
11605;BME280;5858;43.076;25.626;2023-03-01T05:50:51;99889.78;;;5.01;100.00
11605;BME280;5858;43.076;25.626;2023-03-01T05:53:19;99959.00;;;5.68;100.00
11605;BME280;5858;43.076;25.626;2023-03-01T05:55:47;100070.84;;;6.25;100.00
11605;BME280;5858;43.076;25.626;2023-03-01T05:58:17;99981.81;;;5.81;100.00
11605;BME280;5858;43.076;25.626;2023-03-01T06:00:45;100056.88;;;6.42;100.00
11605;BME280;5858;43.076;25.626;2023-03-01T06:03:16;99936.31;;;5.64;100.00
11605;BME280;5858;43.076;25.626;2023-03-01T06:05:43;99924.88;;;5.64;100.00
11605;BME280;5858;43.076;25.626;2023-03-01T06:08:11;100009.31;;;6.20;100.00
11605;BME280;5858;43.076;25.626;2023-03-01T06:10:38;100023.16;;;6.33;100.00
11605;BME280;5858;43.076;25.626;2023-03-01T06:13:06;100078.75;;;6.75;100.00
11605;BME280;5858;43.076;25.626;2023-03-01T06:15:35;99917.88;;;5.63;100.00
11605;BME280;5858;43.076;25.626;2023-03-01T06:18:02;99985.94;;;6.14;100.00
11605;BME280;5858;43.076;25.626;2023-03-01T06:20:33;99981.06;;;6.19;100.00
11605;BME280;5858;43.076;25.626;2023-03-01T06:23:01;100071.31;;;6.78;100.00
11605;BME280;5858;43.076;25.626;2023-03-01T06:25:29;100057.31;;;6.76;100.00
11605;BME280;5858;43.076;25.626;2023-03-01T06:27:56;100000.09;;;6.34;100.00
11605;BME280;5858;43.076;25.626;2023-03-01T06:30:24;100014.91;;;6.36;100.00
11605;BME280;5858;43.076;25.626;2023-03-01T06:32:52;100002.59;;;6.35;100.00
11605;BME280;5858;43.076;25.626;2023-03-01T06:35:26;100025.13;;;6.41;100.00
11605;BME280;5858;43.076;25.626;2023-03-01T06:37:57;99970.97;;;6.13;100.00
11605;BME280;5858;43.076;25.626;2023-03-01T06:40:25;99942.00;;;5.90;100.00
11605;BME280;5858;43.076;25.626;2023-03-01T06:42:52;100029.88;;;6.37;100.00
11605;BME280;5858;43.076;25.626;2023-03-01T06:45:20;99979.47;;;6.07;100.00
11605;BME280;5858;43.076;25.626;2023-03-01T06:47:48;100091.75;;;6.78;100.00
11605;BME280;5858;43.076;25.626;2023-03-01T06:50:20;100082.63;;;6.61;100.00
11605;BME280;5858;43.076;25.626;2023-03-01T06:52:48;99943.78;;;5.71;100.00
11605;BME280;5858;43.076;25.626;2023-03-01T06:55:17;99982.56;;;5.92;100.00
11605;BME280;5858;43.076;25.626;2023-03-01T06:57:44;99964.06;;;5.81;100.00
11605;BME280;5858;43.076;25.626;2023-03-01T07:00:12;100013.59;;;6.02;100.00
11605;BME280;5858;43.076;25.626;2023-03-01T07:02:40;100090.75;;;6.50;100.00
11605;BME280;5858;43.076;25.626;2023-03-01T07:05:07;100021.47;;;6.22;100.00
11605;BME280;5858;43.076;25.626;2023-03-01T07:07:34;100024.56;;;6.47;100.00
11605;BME280;5858;43.076;25.626;2023-03-01T07:10:04;100044.72;;;6.69;100.00
11605;BME280;5858;43.076;25.626;2023-03-01T07:12:45;99948.03;;;6.02;100.00
11605;BME280;5858;43.076;25.626;2023-03-01T07:15:12;100025.13;;;6.60;100.00
11605;BME280;5858;43.076;25.626;2023-03-01T07:17:40;100050.47;;;6.83;100.00
11605;BME280;5858;43.076;25.626;2023-03-01T07:20:11;100096.06;;;7.08;100.00
11605;BME280;5858;43.076;25.626;2023-03-01T07:22:40;99975.19;;;6.35;100.00
11605;BME280;5858;43.076;25.626;2023-03-01T07:25:08;100062.22;;;6.81;100.00
11605;BME280;5858;43.076;25.626;2023-03-01T07:27:36;100024.16;;;6.42;100.00
11605;BME280;5858;43.076;25.626;2023-03-01T07:30:05;100070.91;;;6.73;100.00
11605;BME280;5858;43.076;25.626;2023-03-01T07:32:33;100086.44;;;6.78;100.00
11605;BME280;5858;43.076;25.626;2023-03-01T07:35:00;100053.97;;;6.65;100.00
11605;BME280;5858;43.076;25.626;2023-03-01T07:37:27;99973.47;;;6.14;100.00
11605;BME280;5858;43.076;25.626;2023-03-01T07:39:57;99983.69;;;6.09;100.00
11605;BME280;5858;43.076;25.626;2023-03-01T07:42:27;100057.03;;;6.50;100.00
11605;BME280;5858;43.076;25.626;2023-03-01T07:44:59;99993.66;;;6.17;100.00
11605;BME280;5858;43.076;25.626;2023-03-01T07:47:27;100074.41;;;6.74;100.00
11605;BME280;5858;43.076;25.626;2023-03-01T07:49:56;100071.59;;;6.66;100.00
11605;BME280;5858;43.076;25.626;2023-03-01T07:52:31;99924.09;;;5.83;100.00
11605;BME280;5858;43.076;25.626;2023-03-01T07:58:36;100019.53;;;6.73;100.00
11605;BME280;5858;43.076;25.626;2023-03-01T08:01:20;99962.56;;;6.08;100.00
11605;BME280;5858;43.076;25.626;2023-03-01T08:03:49;100005.53;;;6.22;100.00
11605;BME280;5858;43.076;25.626;2023-03-01T08:06:17;99947.91;;;5.63;100.00
11605;BME280;5858;43.076;25.626;2023-03-01T08:08:44;99979.47;;;6.07;100.00
11605;BME280;5858;43.076;25.626;2023-03-01T08:11:13;100065.84;;;6.41;100.00
11605;BME280;5858;43.076;25.626;2023-03-01T08:13:41;100036.44;;;6.23;100.00
11605;BME280;5858;43.076;25.626;2023-03-01T08:16:10;99976.66;;;5.89;100.00
11605;BME280;5858;43.076;25.626;2023-03-01T08:18:38;100064.84;;;6.52;100.00
11605;BME280;5858;43.076;25.626;2023-03-01T08:21:08;99997.84;;;6.29;100.00
11605;BME280;5858;43.076;25.626;2023-03-01T08:23:36;100059.16;;;6.76;100.00
11605;BME280;5858;43.076;25.626;2023-03-01T08:26:05;100019.97;;;6.68;100.00
11605;BME280;5858;43.076;25.626;2023-03-01T08:28:33;100050.03;;;6.78;100.00
11605;BME280;5858;43.076;25.626;2023-03-01T08:31:00;100090.91;;;7.16;100.00
11605;BME280;5858;43.076;25.626;2023-03-01T08:33:27;99980.78;;;6.70;100.00
11605;BME280;5858;43.076;25.626;2023-03-01T08:36:03;100069.47;;;7.17;100.00
11605;BME280;5858;43.076;25.626;2023-03-01T08:38:34;100085.72;;;7.14;100.00
11605;BME280;5858;43.076;25.626;2023-03-01T08:41:02;100084.34;;;7.10;100.00
11605;BME280;5858;43.076;25.626;2023-03-01T08:43:29;100042.63;;;6.62;100.00
11605;BME280;5858;43.076;25.626;2023-03-01T08:45:57;100047.81;;;6.64;100.00
11605;BME280;5858;43.076;25.626;2023-03-01T08:48:24;99990.56;;;6.31;100.00
11605;BME280;5858;43.076;25.626;2023-03-01T08:50:51;99883.69;;;5.79;100.00
11605;BME280;5858;43.076;25.626;2023-03-01T08:53:18;99998.41;;;6.42;100.00
11605;BME280;5858;43.076;25.626;2023-03-01T08:55:47;100028.63;;;6.51;100.00
11605;BME280;5858;43.076;25.626;2023-03-01T08:58:14;100053.56;;;6.69;100.00
11605;BME280;5858;43.076;25.626;2023-03-01T09:00:41;100020.38;;;6.44;100.00
11605;BME280;5858;43.076;25.626;2023-03-01T09:03:08;100056.34;;;6.68;100.00
11605;BME280;5858;43.076;25.626;2023-03-01T09:05:35;99999.09;;;6.35;100.00
11605;BME280;5858;43.076;25.626;2023-03-01T09:08:02;99964.34;;;5.88;100.00
11605;BME280;5858;43.076;25.626;2023-03-01T09:10:29;99979.75;;;6.04;100.00
11605;BME280;5858;43.076;25.626;2023-03-01T09:12:59;100051.28;;;6.45;100.00
11605;BME280;5858;43.076;25.626;2023-03-01T09:15:30;100029.47;;;6.42;100.00
11605;BME280;5858;43.076;25.626;2023-03-01T09:17:59;100020.22;;;6.36;100.00
11605;BME280;5858;43.076;25.626;2023-03-01T09:20:26;99901.38;;;5.50;100.00
11605;BME280;5858;43.076;25.626;2023-03-01T09:22:53;100057.44;;;6.55;100.00
11605;BME280;5858;43.076;25.626;2023-03-01T09:25:22;99913.13;;;5.66;100.00
11605;BME280;5858;43.076;25.626;2023-03-01T09:27:50;99925.31;;;5.69;100.00
11605;BME280;5858;43.076;25.626;2023-03-01T09:30:20;100049.03;;;6.50;100.00
11605;BME280;5858;43.076;25.626;2023-03-01T09:32:47;100017.56;;;6.36;100.00
11605;BME280;5858;43.076;25.626;2023-03-01T09:35:15;100040.94;;;6.52;100.00
11605;BME280;5858;43.076;25.626;2023-03-01T09:37:42;100045.28;;;6.72;100.00
11605;BME280;5858;43.076;25.626;2023-03-01T09:40:15;100047.09;;;6.81;100.00
11605;BME280;5858;43.076;25.626;2023-03-01T09:43:02;99881.91;;;6.28;100.00
11605;BME280;5858;43.076;25.626;2023-03-01T09:45:44;99871.56;;;6.25;100.00
11605;BME280;5858;43.076;25.626;2023-03-01T09:48:17;100042.47;;;7.49;100.00
11605;BME280;5858;43.076;25.626;2023-03-01T09:50:47;99911.34;;;6.73;100.00
11605;BME280;5858;43.076;25.626;2023-03-01T09:53:17;100026.13;;;7.72;100.00
11605;BME280;5858;43.076;25.626;2023-03-01T09:55:48;100066.06;;;8.09;100.00
11605;BME280;5858;43.076;25.626;2023-03-01T09:58:31;100014.78;;;7.70;100.00
11605;BME280;5858;43.076;25.626;2023-03-01T10:01:21;100071.41;;;8.09;100.00
11605;BME280;5858;43.076;25.626;2023-03-01T10:04:11;100073.63;;;8.04;100.00
11605;BME280;5858;43.076;25.626;2023-03-01T10:06:46;100031.13;;;7.84;100.00
11605;BME280;5858;43.076;25.626;2023-03-01T10:09:19;100046.72;;;7.79;100.00
11605;BME280;5858;43.076;25.626;2023-03-01T10:11:49;100037.47;;;7.74;100.00
11605;BME280;5858;43.076;25.626;2023-03-01T10:14:27;100027.66;;;7.74;100.00
11605;BME280;5858;43.076;25.626;2023-03-01T10:17:01;100052.06;;;7.70;100.00
11605;BME280;5858;43.076;25.626;2023-03-01T10:19:32;100028.72;;;7.54;100.00
11605;BME280;5858;43.076;25.626;2023-03-01T10:22:03;99996.94;;;7.43;100.00
11605;BME280;5858;43.076;25.626;2023-03-01T10:24:36;100012.56;;;7.65;100.00
11605;BME280;5858;43.076;25.626;2023-03-01T10:27:09;99947.78;;;7.37;100.00
11605;BME280;5858;43.076;25.626;2023-03-01T10:29:44;99976.47;;;7.06;100.00
11605;BME280;5858;43.076;25.626;2023-03-01T10:32:20;99995.47;;;7.31;100.00
11605;BME280;5858;43.076;25.626;2023-03-01T10:34:52;100039.59;;;7.70;100.00
11605;BME280;5858;43.076;25.626;2023-03-01T10:37:41;99866.97;;;6.74;100.00
11605;BME280;5858;43.076;25.626;2023-03-01T10:40:21;99981.94;;;7.14;100.00
11605;BME280;5858;43.076;25.626;2023-03-01T10:42:52;99864.63;;;6.51;100.00
11605;BME280;5858;43.076;25.626;2023-03-01T10:45:34;99941.53;;;6.82;100.00
11605;BME280;5858;43.076;25.626;2023-03-01T10:48:12;99963.72;;;7.19;100.00
11605;BME280;5858;43.076;25.626;2023-03-01T10:50:44;99926.25;;;6.93;100.00
11605;BME280;5858;43.076;25.626;2023-03-01T10:53:40;99965.69;;;7.45;100.00
11605;BME280;5858;43.076;25.626;2023-03-01T10:56:09;99952.56;;;7.34;100.00
11605;BME280;5858;43.076;25.626;2023-03-01T10:58:56;99996.84;;;7.72;100.00
11605;BME280;5858;43.076;25.626;2023-03-01T11:01:26;99874.66;;;7.04;100.00
11605;BME280;5858;43.076;25.626;2023-03-01T11:10:23;99947.44;;;7.77;100.00
11605;BME280;5858;43.076;25.626;2023-03-01T11:13:18;99852.44;;;6.95;100.00
11605;BME280;5858;43.076;25.626;2023-03-01T11:16:13;99883.28;;;7.25;100.00
11605;BME280;5858;43.076;25.626;2023-03-01T11:18:43;99959.19;;;7.84;100.00
11605;BME280;5858;43.076;25.626;2023-03-01T11:21:28;99931.03;;;7.54;100.00
11605;BME280;5858;43.076;25.626;2023-03-01T11:24:00;99934.56;;;7.73;100.00
11605;BME280;5858;43.076;25.626;2023-03-01T11:26:38;99935.56;;;7.89;100.00
11605;BME280;5858;43.076;25.626;2023-03-01T11:29:27;99849.94;;;7.21;100.00
11605;BME280;5858;43.076;25.626;2023-03-01T11:32:03;99954.38;;;7.88;100.00
11605;BME280;5858;43.076;25.626;2023-03-01T11:34:40;99990.06;;;8.23;100.00
11605;BME280;5858;43.076;25.626;2023-03-01T11:37:21;99994.19;;;8.17;99.76
11605;BME280;5858;43.076;25.626;2023-03-01T11:39:59;99951.25;;;7.75;100.00
11605;BME280;5858;43.076;25.626;2023-03-01T11:42:43;99962.81;;;7.66;100.00
11605;BME280;5858;43.076;25.626;2023-03-01T11:45:13;99917.03;;;7.52;100.00
11605;BME280;5858;43.076;25.626;2023-03-01T11:48:00;99891.06;;;7.37;100.00
11605;BME280;5858;43.076;25.626;2023-03-01T11:50:43;99952.69;;;7.69;100.00
11605;BME280;5858;43.076;25.626;2023-03-01T11:53:32;99906.66;;;7.49;100.00
11605;BME280;5858;43.076;25.626;2023-03-01T11:56:24;99899.88;;;7.37;100.00
11605;BME280;5858;43.076;25.626;2023-03-01T11:59:17;99865.28;;;7.10;100.00
11605;BME280;5858;43.076;25.626;2023-03-01T12:01:56;99976.72;;;7.60;100.00
11605;BME280;5858;43.076;25.626;2023-03-01T12:07:42;99745.28;;;6.21;100.00
11605;BME280;5858;43.076;25.626;2023-03-01T12:10:25;99902.41;;;7.11;100.00
11605;BME280;5858;43.076;25.626;2023-03-01T12:13:13;99822.88;;;6.71;100.00
11605;BME280;5858;43.076;25.626;2023-03-01T12:16:12;99938.59;;;7.59;100.00
11605;BME280;5858;43.076;25.626;2023-03-01T12:19:00;99846.63;;;6.82;100.00
11605;BME280;5858;43.076;25.626;2023-03-01T12:21:39;99925.31;;;7.49;100.00
11605;BME280;5858;43.076;25.626;2023-03-01T12:24:28;99948.19;;;7.70;100.00
11605;BME280;5858;43.076;25.626;2023-03-01T12:30:20;99819.97;;;6.55;100.00
11605;BME280;5858;43.076;25.626;2023-03-01T12:33:04;99855.44;;;6.83;100.00
11605;BME280;5858;43.076;25.626;2023-03-01T12:38:41;99881.75;;;7.23;100.00
11605;BME280;5858;43.076;25.626;2023-03-01T12:41:22;99934.69;;;7.26;100.00
11605;BME280;5858;43.076;25.626;2023-03-01T12:44:14;99949.78;;;7.63;100.00
11605;BME280;5858;43.076;25.626;2023-03-01T12:46:56;99960.81;;;7.40;100.00
11605;BME280;5858;43.076;25.626;2023-03-01T12:49:32;99906.31;;;7.07;100.00
11605;BME280;5858;43.076;25.626;2023-03-01T12:52:10;99927.59;;;7.17;100.00
11605;BME280;5858;43.076;25.626;2023-03-01T12:54:41;99938.31;;;7.25;100.00
11605;BME280;5858;43.076;25.626;2023-03-01T12:57:18;99802.00;;;6.39;100.00
11605;BME280;5858;43.076;25.626;2023-03-01T12:59:56;99938.31;;;7.25;100.00
11605;BME280;5858;43.076;25.626;2023-03-01T13:02:47;99819.63;;;6.40;100.00
11605;BME280;5858;43.076;25.626;2023-03-01T13:05:24;99844.94;;;6.44;100.00
11605;BME280;5858;43.076;25.626;2023-03-01T13:08:00;99918.22;;;7.03;100.00
11605;BME280;5858;43.076;25.626;2023-03-01T13:10:34;99943.41;;;7.18;100.00
11605;BME280;5858;43.076;25.626;2023-03-01T13:13:14;99878.88;;;6.70;100.00
11605;BME280;5858;43.076;25.626;2023-03-01T13:15:45;99891.84;;;6.82;100.00
11605;BME280;5858;43.076;25.626;2023-03-01T13:18:32;99889.59;;;6.87;100.00
11605;BME280;5858;43.076;25.626;2023-03-01T13:21:06;99934.81;;;7.24;100.00
11605;BME280;5858;43.076;25.626;2023-03-01T13:23:39;99929.16;;;7.10;100.00
11605;BME280;5858;43.076;25.626;2023-03-01T13:26:17;99897.38;;;6.99;100.00
11605;BME280;5858;43.076;25.626;2023-03-01T13:28:53;99918.56;;;6.90;100.00
11605;BME280;5858;43.076;25.626;2023-03-01T13:31:56;99923.94;;;7.08;100.00
11605;BME280;5858;43.076;25.626;2023-03-01T13:34:44;99927.13;;;7.21;100.00
11605;BME280;5858;43.076;25.626;2023-03-01T13:37:23;99869.19;;;7.06;100.00
11605;BME280;5858;43.076;25.626;2023-03-01T13:39:57;99776.00;;;6.33;100.00
11605;BME280;5858;43.076;25.626;2023-03-01T13:42:50;99757.41;;;6.33;100.00